Station: Edithburgh  

  Atmospheric Gas Attenuation - ITU Rec 676-11   ----------------- dB/100km -----------------
Date Time Temp RH % AH g/m3 Dew Point Wind Direction Speed kph Gust kph Barometer mB Rainfall Since 9am 24GHz 47GHz 76GHz 122GHz 134GHz 241GHz
10/05 15:40 16.8 63 9.01 9.7 9 11 1029.1 0 20.3 26.3 40.6 106.5 101.2 348.6
10/05 15:30 16.9 64 9.2 10.1 9 13 1029.1 0 20.7 26.5 41.3 108.3 103.6 356.9
10/05 15:20 16.6 63 8.9 9.7 11 13 1029 0 20.1 26.1 40.3 105.6 100.1 344.5
10/05 15:10 16.8 64 9.15 10.1 11 13 1029 0 20.6 26.5 41.2 107.9 103.1 355.0
10/05 15:00 16.5 65 9.13 9.9 11 15 1029 0 20.6 26.5 41.2 108.1 103.2 355.4
10/05 14:50 16.9 64 9.2 10 11 13 1029.1 0 20.7 26.5 41.3 108.3 103.6 356.9
10/05 14:40 16.9 63 9.06 9.8 9 11 1029.1 0 20.4 26.3 40.8 106.9 101.8 350.5
10/05 14:30 16.9 64 9.2 10.1 11 17 1029 0 20.7 26.5 41.3 108.3 103.6 356.8
10/05 14:20 17 63 9.12 9.9 13 17 1029 0 20.5 26.4 41.0 107.3 102.4 352.7
10/05 14:10 16.9 63 9.06 9.8 9 11 1029 0 20.4 26.3 40.8 106.8 101.7 350.4
10/05 14:00 17 63 9.12 9.9 13 17 1029 0 20.5 26.4 41.0 107.3 102.4 352.7
10/05 13:50 16.9 61 8.77 9.5 11 13 1029.1 0 19.8 25.9 39.6 103.8 98.0 337.3
10/05 13:40 17.2 61 8.93 9.8 9 15 1029.1 0 20.1 26.0 40.1 105.1 99.7 343.3
10/05 13:30 17.4 62 9.19 10.1 11 15 1029.2 0 20.6 26.4 41.0 107.6 102.8 354.2
10/05 13:20 16.9 64 9.2 10.2 11 13 1029.3 0 20.7 26.6 41.3 108.4 103.6 356.9
10/05 13:10 16.9 64 9.2 10.2 9 15 1029.4 0 20.7 26.6 41.3 108.4 103.6 356.9
10/05 13:00 16.6 63 8.9 9.5 11 15 1029.4 0 20.1 26.2 40.3 105.6 100.1 344.6
10/05 12:50 17 64 9.26 10.1 11 13 1029.5 0 20.8 26.6 41.5 108.9 104.3 359.3
10/05 12:40 17 64 9.26 10.3 11 13 1029.7 0 20.8 26.6 41.5 108.9 104.3 359.3
10/05 12:30 16.9 66 9.49 10.5 13 15 1029.8 0 21.3 27.0 42.5 111.5 107.4 370.4
10/05 12:20 16.8 66 9.44 10.4 15 17 1030 0 21.2 27.0 42.4 111.1 106.9 368.6
10/05 12:10 16.7 66 9.38 10.3 15 17 1030.2 0 21.1 26.9 42.2 110.7 106.3 366.4
10/05 12:00 16.6 66 9.32 10.2 13 15 1030.3 0 21.0 26.9 42.0 110.2 105.7 364.1
10/05 11:50 16.6 66 9.32 10.2 11 15 1030.4 0 21.0 26.9 42.0 110.2 105.7 364.1
10/05 11:40 16.7 67 9.52 10.5 13 15 1030.5 0 21.4 27.2 42.8 112.2 108.2 372.9
10/05 11:30 16.6 68 9.61 10.7 13 17 1030.6 0 21.6 27.4 43.2 113.3 109.5 377.6
10/05 11:20 16.7 67 9.52 10.5 15 17 1030.7 0 21.4 27.2 42.8 112.2 108.2 373.0
10/05 11:10 16.7 67 9.52 10.5 11 13 1030.8 0 21.4 27.2 42.8 112.2 108.2 373.0
10/05 11:00 16.6 68 9.61 10.7 13 17 1030.8 0 21.6 27.4 43.2 113.3 109.5 377.7
10/05 10:50 16.3 69 9.57 10.6 11 13 1030.8 0 21.5 27.4 43.2 113.3 109.4 377.3
10/05 10:40 16.2 71 9.79 10.9 13 17 1030.8 0 22.0 27.8 44.2 115.9 112.5 388.1
10/05 10:30 16.2 69 9.51 10.5 13 17 1030.8 0 21.4 27.3 43.0 112.8 108.8 374.9
10/05 10:20 16.1 69 9.46 10.4 13 15 1030.7 0 21.3 27.3 42.9 112.4 108.2 373.0
10/05 10:10 15.9 71 9.61 10.6 11 15 1030.7 0 21.6 27.6 43.6 114.3 110.5 381.0
10/05 10:00 15.8 72 9.69 10.8 11 19 1030.7 0 21.8 27.7 44.0 115.4 111.8 385.3
10/05 09:50 15.6 70 9.31 10.1 11 13 1030.8 0 21.0 27.2 42.5 111.5 106.9 368.4
10/05 09:40 15.6 70 9.31 10.3 13 13 1030.7 0 21.0 27.2 42.5 111.5 106.9 368.4
10/05 09:30 15.6 72 9.57 10.6 15 20 1030.8 0 21.5 27.6 43.6 114.3 110.4 380.6
10/05 09:20 15.6 72 9.57 10.7 11 13 1030.8 0 21.5 27.6 43.6 114.3 110.4 380.6
10/05 09:10 15.6 73 9.71 10.9 17 19 1030.8 0 21.8 27.8 44.2 115.9 112.3 387.3
10/05 09:00 15.5 74 9.78 10.9 13 17 1030.7 0 22.0 28.0 44.5 116.8 113.4 391.0
10/05 08:50 15.3 75 9.79 10.9 13 15 1030.7 0.6 22.0 28.1 44.7 117.2 113.8 392.5
10/05 08:40 15.1 77 9.93 11.1 13 17 1030.6 0.6 22.3 28.4 45.4 119.0 116.0 400.2
10/05 08:30 14.9 80 10.2 11.5 11 20 1030.5 0.6 22.9 28.9 46.6 122.4 120.1 414.3
10/05 08:20 14.7 83 10.45 11.8 9 9 1030.5 0.6 23.5 29.4 47.8 125.5 123.9 427.6
10/05 08:10 14.3 87 10.69 12.1 13 13 1030.4 0.6 24.0 29.9 49.1 128.9 128.0 441.7
10/05 08:00 14.3 89 10.93 12.5 9 11 1030.3 0.6 24.5 30.3 50.1 131.7 131.4 453.7
10/05 07:50 14.2 89 10.87 12.5 11 15 1030.2 0.6 24.4 30.3 49.9 131.2 130.7 451.2
10/05 07:40 14 89 10.74 12.3 6 7 1030.1 0.6 24.1 30.1 49.5 130.0 129.1 445.8
10/05 07:30 13.9 90 10.79 12.3 9 13 1030 0.6 24.2 30.2 49.7 130.7 130.0 448.9
10/05 07:20 13.8 91 10.84 12.3 15 17 1029.9 0.6 24.4 30.3 50.0 131.5 130.9 452.0
10/05 07:10 14 91 10.98 12.5 17 17 1029.8 0.6 24.6 30.5 50.5 132.8 132.6 457.8
10/05 07:00 13.9 91 10.91 12.5 17 24 1029.7 0.6 24.5 30.4 50.3 132.1 131.7 454.8
10/05 06:50 14.3 89 10.93 12.6 19 22 1029.6 0.6 24.5 30.3 50.1 131.6 131.3 453.5
10/05 06:40 14.1 89 10.8 12.4 13 15 1029.5 0.6 24.3 30.1 49.6 130.4 129.8 448.1
10/05 06:30 14.1 90 10.92 12.5 15 17 1029.4 0.4 24.5 30.4 50.2 131.8 131.5 454.1
10/05 06:20 14.4 89 11 12.7 11 13 1029.4 0.4 24.7 30.4 50.3 132.3 132.1 456.3
10/05 06:10 14.6 88 11.01 12.6 19 20 1029.3 0.4 24.7 30.3 50.2 132.0 131.9 455.6
10/05 06:00 14.8 86 10.89 12.5 15 22 1029.3 0.4 24.4 30.1 49.6 130.3 129.9 448.4
10/05 05:50 14.8 84 10.64 12.1 15 19 1029.2 0.4 23.9 29.6 48.5 127.4 126.3 436.0
10/05 05:40 14.7 84 10.58 12 15 17 1029.1 0.4 23.7 29.5 48.3 126.9 125.6 433.6
10/05 05:30 14.8 84 10.64 12.1 13 17 1029.1 0.4 23.9 29.6 48.5 127.4 126.3 436.0
10/05 05:20 14.6 83 10.39 11.7 11 11 1028.9 0.4 23.3 29.2 47.5 124.8 123.1 424.7
10/05 05:10 14.1 85 10.32 11.6 9 11 1028.9 0.4 23.2 29.3 47.5 124.8 122.9 424.0
10/05 05:00 13.9 83 9.95 11.1 7 11 1028.8 0.4 22.4 28.7 46.1 120.9 118.0 406.8
10/05 04:50 13.9 84 10.07 11.2 11 11 1028.8 0.4 22.7 28.9 46.6 122.3 119.7 412.7
10/05 04:40 14 84 10.13 11.3 9 11 1028.7 0.4 22.8 29.0 46.8 122.8 120.3 415.1
10/05 04:30 14 85 10.25 11.5 7 11 1028.5 0.4 23.1 29.2 47.3 124.1 122.0 420.9
10/05 04:20 14.3 86 10.57 12 6 7 1028.4 0.4 23.8 29.6 48.4 127.3 126.0 435.1
10/05 04:10 14.2 87 10.62 12 7 7 1028.3 0.4 23.9 29.7 48.7 128.0 126.9 438.1
10/05 04:00 13.9 86 10.31 11.6 9 11 1028.3 0.4 23.2 29.3 47.6 125.0 123.0 424.4
10/05 03:50 14.2 85 10.38 11.7 11 13 1028.3 0.4 23.4 29.3 47.7 125.3 123.5 426.2
10/05 03:40 14.4 86 10.63 12.1 13 17 1028.3 0.4 23.9 29.7 48.6 127.8 126.7 437.5
10/05 03:30 14.3 87 10.69 12.2 13 19 1028.4 0.4 24.0 29.8 49.0 128.7 127.8 441.0
10/05 03:20 14.6 87 10.89 12.4 13 15 1028.5 0.4 24.4 30.1 49.7 130.5 130.1 449.3
10/05 03:10 14.8 87 11.02 12.6 17 20 1028.4 0.4 24.7 30.2 50.1 131.7 131.6 454.6
10/05 03:00 14.7 87 10.95 12.6 11 15 1028.5 0.4 24.5 30.2 49.9 131.1 130.8 451.7
10/05 02:50 14.7 85 10.7 12.3 13 13 1028.5 0.4 24.0 29.7 48.8 128.2 127.2 439.3
10/05 02:40 14.9 85 10.83 12.5 11 15 1028.5 0.4 24.3 29.9 49.2 129.3 128.7 444.6
10/05 02:30 14.9 87 11.09 12.8 11 17 1028.5 0.4 24.8 30.3 50.3 132.3 132.5 457.6
10/05 02:20 14.6 87 10.89 12.4 9 11 1028.7 0.4 24.4 30.1 49.7 130.6 130.1 449.4
10/05 02:10 14.3 87 10.69 12.1 11 13 1028.8 0.4 24.0 29.9 49.0 128.8 127.8 441.2
10/05 02:00 14.1 88 10.68 12.1 13 17 1028.8 0.4 24.0 29.9 49.1 129.0 128.0 441.8
10/05 01:50 14.1 89 10.8 12.3 11 11 1028.8 0.4 24.3 30.1 49.6 130.4 129.7 447.8
10/05 01:40 14.1 89 10.8 12.3 11 13 1028.9 0.4 24.3 30.1 49.6 130.4 129.7 447.9
10/05 01:30 14.2 89 10.87 12.4 9 13 1028.9 0.4 24.4 30.2 49.8 131.0 130.5 450.8
10/05 01:20 14.4 89 11 12.7 7 9 1029 0.4 24.7 30.4 50.3 132.2 132.1 456.2
10/05 01:10 14.5 89 11.07 12.8 11 13 1029.1 0.4 24.8 30.5 50.5 132.9 132.9 459.1
10/05 01:00 14.5 90 11.19 12.9 15 17 1029.1 0.4 25.1 30.7 51.1 134.3 134.7 465.2
10/05 00:50 14.7 91 11.46 13.2 17 19 1029.2 0.4 25.6 31.1 52.1 137.1 138.2 477.7
10/05 00:40 14.9 91 11.6 13.4 11 13 1029.1 0.4 25.9 31.3 52.6 138.4 139.9 483.5
10/05 00:30 14.8 91 11.53 13.3 7 15 1029.2 0.4 25.8 31.2 52.4 137.8 139.1 480.6
10/05 00:20 14.7 92 11.58 13.4 6 6 1029.2 0.4 25.9 31.3 52.7 138.5 140.0 483.8
10/05 00:10 14.5 92 11.44 13.3 7 9 1029.2 0.4 25.6 31.1 52.2 137.2 138.3 477.9
10/05 00:00 14.1 92 11.17 12.8 2 4 1029.2 0.4 25.0 30.8 51.2 134.8 135.1 466.6
09/05 23:50 14.2 92 11.23 12.9 0 0 1029.3 0.4 25.2 30.9 51.4 135.3 135.8 469.1
09/05 23:40 14.3 92 11.3 13 4 4 1029.4 0.4 25.3 31.0 51.7 136.0 136.6 472.1
09/05 23:30 14.3 91 11.18 12.9 11 19 1029.4 0.4 25.1 30.7 51.2 134.5 134.9 466.0
09/05 23:20 14.8 88 11.15 12.8 19 22 1029.4 0.2 25.0 30.5 50.7 133.3 133.6 461.5
09/05 23:10 14.7 83 10.45 11.8 11 15 1029.4 0.2 23.5 29.3 47.7 125.4 123.8 427.3

Last Refresh: 10-May-2026 15:55:20

Bureau of Meteorology